Jock — WDF2423 — position and weather

sailwx.info

Track history (hours):
 
Tides and Currents Weather Stations Pressure Air Temp Water Temp Dewpoint Dewpoint Depression Visibility Wind Speed Wind Dir Waves Ship Positions

Jock

Owner: Enterprise Marine Services, LLC, San Antonio, TX. More information available from US FCC via Universal Licensing System and Coast Guard Vessel Documentation Center.

Last reported at 2015-Jul-01 19:10 UTC. Time now 2015-Jul-02 12:31 UTC.
Position N 29°45' W 095°11'.

Length 28 m.

Type: Other ship. MMSI: 367003460.

Date/timePositionNaut miles runAvg speedWind from/ knotsBaromVisibWave heightAir tempDewpointWater temp
2015-Jul-01 19:10N 29°45' W 095°11'2 3.5
2015-Jul-01 18:29N 29°44' W 095°09'3 3.8
2015-Jul-01 17:33N 29°46' W 095°05'2 0.7
2015-Jul-01 15:32N 29°47' W 095°05'0 0.1
2015-Jul-01 13:15N 29°47' W 095°05'1 1.2
2015-Jul-01 12:32N 29°47' W 095°04'1 0.1
2015-Jul-01 05:23N 29°47' W 095°05'0 0.0
2015-Jun-29 20:16N 29°47' W 095°05'0 0.0
2015-Jun-29 19:32N 29°47' W 095°05'0 0.0
2015-Jun-29 18:33N 29°47' W 095°05'0 0.0
2015-Jun-29 16:27N 29°47' W 095°05'0 0.0
2015-Jun-28 23:33N 29°47' W 095°05'1 1.0
2015-Jun-28 22:28N 29°46' W 095°05'3 3.3
2015-Jun-28 21:33N 29°44' W 095°02'5 4.6
2015-Jun-28 20:33N 29°41' W 094°59'5 5.4
2015-Jun-28 19:33N 29°36' W 094°56'6 5.5
2015-Jun-28 18:33N 29°31' W 094°53'  
2015-Jun-22 17:28N 29°44' W 095°09'4 4.3
2015-Jun-22 16:25N 29°47' W 095°05'  
Track history (hours):
 
Tides and Currents Weather Stations Pressure Air Temp Water Temp Dewpoint Dewpoint Depression Visibility Wind Speed Wind Dir Waves Ship Positions

Jock

Owner: Enterprise Marine Services, LLC, San Antonio, TX. More information available from US FCC via Universal Licensing System and Coast Guard Vessel Documentation Center.

Last reported at 2015-Jul-01 19:10 UTC. Time now 2015-Jul-02 12:31 UTC.
Position N 29°45' W 095°11'.

Length 28 m.

Type: Other ship. MMSI: 367003460.

Date/timePositionNaut miles runAvg speedWind from/ knotsBaromVisibWave heightAir tempDewpointWater temp
2015-Jul-01 19:10N 29°45' W 095°11'2 3.5
2015-Jul-01 18:29N 29°44' W 095°09'3 3.8
2015-Jul-01 17:33N 29°46' W 095°05'2 0.7
2015-Jul-01 15:32N 29°47' W 095°05'0 0.1
2015-Jul-01 13:15N 29°47' W 095°05'1 1.2
2015-Jul-01 12:32N 29°47' W 095°04'1 0.1
2015-Jul-01 05:23N 29°47' W 095°05'0 0.0
2015-Jun-29 20:16N 29°47' W 095°05'0 0.0
2015-Jun-29 19:32N 29°47' W 095°05'0 0.0
2015-Jun-29 18:33N 29°47' W 095°05'0 0.0
2015-Jun-29 16:27N 29°47' W 095°05'0 0.0
2015-Jun-28 23:33N 29°47' W 095°05'1 1.0
2015-Jun-28 22:28N 29°46' W 095°05'3 3.3
2015-Jun-28 21:33N 29°44' W 095°02'5 4.6
2015-Jun-28 20:33N 29°41' W 094°59'5 5.4
2015-Jun-28 19:33N 29°36' W 094°56'6 5.5
2015-Jun-28 18:33N 29°31' W 094°53'  
2015-Jun-22 17:28N 29°44' W 095°09'4 4.3
2015-Jun-22 16:25N 29°47' W 095°05'  

Dump ship's entire track history